Aberdeen Proving Ground, MD

2:31 AM EDT on July 02, 2015 (GMT -0400)
KMDABERD6 | | Change Station
CLOSE
Current Station
Personal Weather Station
Location: Aberdeen, MD
Elevation: 144 ft
Nearby Weather Stations

Elev 144 ft 39.51 °N, 76.18 °W | Updated 8 seconds ago

Partly Cloudy
Partly Cloudy
64.2 °F
Feels Like 64.2 °F
N
0.0
Wind Variable Wind from North
Gusts 0.0 mph

Today
High -- | Low -- °F
--% Chance of Precip.
Yesterday
High -- | Low -- °F
Precip. -- in
5:41 AM 8:35 PM
Full, 100% visible
Pressure 29.91 in
Visibility 7.0 miles
Clouds Scattered Clouds 6000 ft
Scattered Clouds 7500 ft
Dew Point 62 °F
Humidity 92%
Rainfall 0.00 in
Snow Depth Not available.
UV 0 out of 12
Pollen 1.60 out of 12
Air Quality Not available.
Flu Activity Not available.
METAR KMTN 020621Z AUTO 00000KT 7SM SCT060 SCT075 20/19 A2991 RMK AO2

More Conditions Fewer Conditions

Pressure 29.91 in
Visibility 7.0 miles
Clouds Scattered Clouds 6000 ft
Scattered Clouds 7500 ft
Dew Point 62 °F
Humidity 92%
Rainfall 0.00 in
Snow Depth Not available.
UV 0 out of 12
Pollen 1.60 out of 12
Air Quality Not available.
Flu Activity Not available.
METAR KMTN 020621Z AUTO 00000KT 7SM SCT060 SCT075 20/19 A2991 RMK AO2

More Conditions Fewer Conditions

10-Day Weather Forecast

×

Almanac

Astronomy

Jul. 02, 2015 Rise Set
Actual Time
Civil Twilight
Nautical Twilight
Astronomical Twilight
Moon
Length of Visible Light
Length of Day
Tomorrow will be .
, % of the Moon is Illuminated

Today's Extremes

State Highs State Lows

Community

WunderPhotos

Upload Photos

1,834,422 photos uploaded!

WunderBlogs® & News

Nearby

Air Quality

  Air Quality AQ Index Pollutant
Not available.

Snow Depth

Station Depth Elevation

Earthquake Activity

City Distance Mag. Time & Date
Minimum magnitude displayed is 2.5.

Coastal Water Temperatures

Place Temperature

Stations

Nearby Weather Stations

Station Location Temp. Windchill Dew Point Humidity Wind Precip. Elev Updated Type